Saltar para o conteúdo principal

Lisboa (Geofísico)

ID 1200535 · 38.7191, -9.1497 mapa

Última leitura · 2026-05-09 19:00 (Europe/Lisbon)

Temperatura
15.4 °C
Humidade
95 %
Pressão
1,007.3 hPa
Precipitação
0.0 mm
Radiação
1,109 W/m²
Velocidade do vento
22.0 km/h
Direcção do vento
SW · Sudoeste

Histórico de 24 horas

Hora (Europe/Lisbon) Temperatura Humidade Pressão Chuva Vento Direcção
2026-05-09 19:00 15.4 °C 95 % 1,007.3 0.0 mm 22.0 km/h SW
2026-05-09 18:00 14.4 °C 100 % 1,006.9 0.0 mm 17.3 km/h SW
2026-05-09 17:00 13.8 °C 96 % 1,006.6 7.5 mm 15.8 km/h SW
2026-05-09 16:00 18.8 °C 69 % 1,005.7 0.0 mm 26.6 km/h SW
2026-05-09 15:00 19.1 °C 68 % 1,005.3 0.0 mm 29.5 km/h SW
2026-05-09 14:00 18.4 °C 68 % 1,005.1 0.0 mm 34.2 km/h SW
2026-05-09 13:00 18.0 °C 68 % 1,004.9 0.0 mm 22.3 km/h SW
2026-05-09 12:00 17.1 °C 72 % 1,004.5 0.0 mm 23.4 km/h SW
2026-05-09 11:00 16.2 °C 84 % 1,003.8 0.0 mm 19.1 km/h SW
2026-05-09 10:00 14.3 °C 100 % 1,003.3 0.0 mm 16.2 km/h SW
2026-05-09 09:00 13.3 °C 100 % 1,003.2 0.0 mm 11.9 km/h SE
2026-05-09 08:00 12.3 °C 100 % 1,003.3 0.1 mm 5.8 km/h SE
2026-05-09 07:00 12.2 °C 100 % 1,003.3 1.0 mm 5.8 km/h SW
2026-05-09 06:00 12.9 °C 100 % 1,003.2 3.4 mm 19.1 km/h SW
2026-05-09 05:00 12.6 °C 100 % 1,003.7 0.4 mm 5.0 km/h SW
2026-05-09 04:00 12.6 °C 100 % 1,004.4 0.8 mm 14.4 km/h SE
2026-05-09 03:00 12.0 °C 100 % 1,005.0 9.0 mm 10.8 km/h E
2026-05-09 02:00 12.4 °C 96 % 1,005.8 10.1 mm 4.0 km/h S
2026-05-09 01:00 14.8 °C 81 % 1,005.7 0.0 mm 19.1 km/h S
2026-05-09 00:00 15.2 °C 78 % 1,005.9 0.0 mm 22.0 km/h S
2026-05-08 23:00 15.5 °C 81 % 1,005.7 0.0 mm 25.6 km/h S
2026-05-08 22:00 15.3 °C 86 % 1,005.4 0.1 mm 14.0 km/h SE
2026-05-08 21:00 16.3 °C 75 % 1,006.0 0.0 mm 16.9 km/h SE
2026-05-08 20:00 16.4 °C 70 % 1,006.3 0.0 mm 21.2 km/h S